createdAt,value
2023-05-10T00:02:04.437Z,13.82
2023-05-10T00:04:34.318Z,13.32
2023-05-10T00:07:18.918Z,15.00
2023-05-10T00:09:48.347Z,15.07
2023-05-10T00:12:20.117Z,12.65
2023-05-10T00:14:48.243Z,11.82
2023-05-10T00:17:28.557Z,16.77
2023-05-10T00:20:00.610Z,17.98
2023-05-10T00:22:33.298Z,13.10
2023-05-10T00:25:07.168Z,12.90
2023-05-10T00:27:38.405Z,14.27
2023-05-10T00:30:10.687Z,13.70
2023-05-10T00:32:45.536Z,16.13
2023-05-10T00:35:19.187Z,13.90
2023-05-10T00:37:53.743Z,12.38
2023-05-10T00:40:23.465Z,14.77
2023-05-10T00:42:56.266Z,12.35
2023-05-10T00:45:27.786Z,12.32
2023-05-10T00:47:59.117Z,12.20
2023-05-10T00:50:31.538Z,12.25
2023-05-10T00:53:07.361Z,13.43
2023-05-10T00:55:45.942Z,13.05
2023-05-10T00:58:17.484Z,12.05
2023-05-10T01:00:51.574Z,13.10
2023-05-10T01:03:20.784Z,16.48
2023-05-10T01:05:52.230Z,14.30
2023-05-10T01:08:22.417Z,11.68
2023-05-10T01:10:50.652Z,12.75
2023-05-10T01:13:31.902Z,11.67
2023-05-10T01:16:05.141Z,17.05
2023-05-10T01:18:35.434Z,11.68
2023-05-10T01:21:17.461Z,11.10
2023-05-10T01:23:48.506Z,12.30
2023-05-10T01:26:43.134Z,13.80
2023-05-10T01:29:35.505Z,13.18
2023-05-10T01:32:19.229Z,12.65
2023-05-10T01:35:05.089Z,11.60
2023-05-10T01:37:49.562Z,12.30
2023-05-10T01:40:40.779Z,11.00
2023-05-10T01:43:15.450Z,11.95
2023-05-10T01:45:51.027Z,12.98
2023-05-10T01:48:20.004Z,10.85
2023-05-10T01:50:52.189Z,12.02
2023-05-10T01:53:21.203Z,14.27
2023-05-10T01:55:50.257Z,14.70
2023-05-10T01:58:35.133Z,14.23
2023-05-10T02:01:07.837Z,13.88
2023-05-10T02:04:05.751Z,13.40
2023-05-10T02:06:43.618Z,12.87
2023-05-10T02:09:15.729Z,14.68
2023-05-10T02:11:48.970Z,11.93
2023-05-10T02:14:17.269Z,13.98
2023-05-10T02:16:45.231Z,13.82
2023-05-10T02:19:20.237Z,11.13
2023-05-10T02:21:48.252Z,12.30
2023-05-10T02:24:23.552Z,12.90
2023-05-10T02:26:53.481Z,13.57
2023-05-10T02:29:22.388Z,12.88
2023-05-10T02:31:57.196Z,15.27
2023-05-10T02:34:37.492Z,13.10
2023-05-10T02:37:08.826Z,19.70
2023-05-10T02:39:47.110Z,13.55
2023-05-10T02:42:17.749Z,11.75
2023-05-10T02:44:54.266Z,16.57
2023-05-10T02:47:25.229Z,15.68
2023-05-10T02:49:58.449Z,13.95
2023-05-10T02:52:32.923Z,13.68
2023-05-10T02:55:09.378Z,14.63
2023-05-10T02:57:48.912Z,12.23
2023-05-10T03:00:23.868Z,13.48
2023-05-10T03:02:54.486Z,13.57
2023-05-10T03:05:22.393Z,12.90
2023-05-10T03:07:49.752Z,15.60
2023-05-10T03:10:21.481Z,12.27
2023-05-10T03:13:19.734Z,11.25
2023-05-10T03:15:52.653Z,12.15
2023-05-10T03:18:35.108Z,14.70
2023-05-10T03:21:15.702Z,10.13
2023-05-10T03:23:46.701Z,13.10
2023-05-10T03:26:59.955Z,13.02
2023-05-10T03:29:52.202Z,13.15
2023-05-10T03:33:00.236Z,16.10
2023-05-10T03:36:16.966Z,12.68
2023-05-10T03:39:23.491Z,9.97
2023-05-10T03:42:06.765Z,12.30
2023-05-10T03:45:05.076Z,11.23
2023-05-10T03:47:41.239Z,12.88
2023-05-10T03:50:13.115Z,11.05
2023-05-10T03:52:54.100Z,10.80
2023-05-10T03:55:33.363Z,12.68
2023-05-10T03:58:14.631Z,10.73
2023-05-10T04:01:04.984Z,10.63
2023-05-10T04:03:38.387Z,10.38
2023-05-10T04:06:20.321Z,11.70
2023-05-10T04:08:50.941Z,9.48
2023-05-10T04:11:37.796Z,10.05
2023-05-10T04:14:13.632Z,9.48
2023-05-10T04:17:05.776Z,10.07
2023-05-10T04:22:56.579Z,9.45
2023-05-10T04:25:29.137Z,11.20
2023-05-10T04:28:01.630Z,14.07
2023-05-10T04:30:36.266Z,10.60
2023-05-10T04:33:16.011Z,11.33
2023-05-10T04:35:47.374Z,11.73
2023-05-10T04:38:17.133Z,14.32
2023-05-10T04:41:01.350Z,11.73
2023-05-10T04:43:58.373Z,10.85
2023-05-10T04:46:37.214Z,11.40
2023-05-10T04:49:10.036Z,10.55
2023-05-10T04:54:43.031Z,8.35
2023-05-10T04:57:40.436Z,12.70
2023-05-10T05:00:27.345Z,12.97
2023-05-10T05:03:19.308Z,9.55
2023-05-10T05:08:32.924Z,8.38
2023-05-10T05:11:15.114Z,12.57
2023-05-10T05:13:50.160Z,8.50
2023-05-10T05:19:17.177Z,8.02
2023-05-10T05:22:27.847Z,7.13
2023-05-10T05:25:20.172Z,9.93
2023-05-10T05:27:58.005Z,7.93
2023-05-10T05:37:06.389Z,6.85
2023-05-10T05:39:34.523Z,8.30
2023-05-10T05:42:39.460Z,9.33
2023-05-10T05:45:46.030Z,8.27
2023-05-10T05:55:32.976Z,7.72
2023-05-10T05:58:28.716Z,9.80
2023-05-10T06:01:26.344Z,9.85
2023-05-10T06:05:06.094Z,8.43
2023-05-10T06:07:29.700Z,11.07
2023-05-10T06:13:25.473Z,8.47
2023-05-10T06:16:27.842Z,10.02
2023-05-10T06:19:51.973Z,11.48
2023-05-10T06:25:59.713Z,7.88
2023-05-10T06:28:49.206Z,9.00
2023-05-10T06:35:13.740Z,7.47
2023-05-10T06:37:53.459Z,8.10
2023-05-10T06:40:41.584Z,10.52
2023-05-10T06:44:10.381Z,7.77
2023-05-10T06:50:17.311Z,8.50
2023-05-10T06:57:10.779Z,9.98
2023-05-10T07:02:35.581Z,7.78
2023-05-10T07:08:45.937Z,6.93
2023-05-10T07:18:43.854Z,8.90
2023-05-10T07:28:22.541Z,8.23
2023-05-10T07:31:46.708Z,10.87
2023-05-10T07:35:01.294Z,7.97
2023-05-10T07:40:41.534Z,6.90
2023-05-10T07:43:47.754Z,9.88
2023-05-10T07:46:45.311Z,6.17
2023-05-10T07:49:42.697Z,7.45
2023-05-10T07:52:38.154Z,10.18
2023-05-10T07:55:31.658Z,7.80
2023-05-10T07:58:16.444Z,6.95
2023-05-10T08:04:52.565Z,7.18
2023-05-10T08:07:30.509Z,11.18
2023-05-10T08:09:58.222Z,7.47
2023-05-10T08:15:52.455Z,9.37
2023-05-10T08:24:23.395Z,7.72
2023-05-10T08:27:13.709Z,10.32
2023-05-10T08:30:21.559Z,8.47
2023-05-10T08:33:30.703Z,7.45
2023-05-10T08:43:05.436Z,9.75
2023-05-10T08:46:18.706Z,10.53
2023-05-10T08:52:38.426Z,6.97
2023-05-10T08:55:40.673Z,8.85
2023-05-10T08:59:12.522Z,8.05
2023-05-10T09:01:58.407Z,7.20
2023-05-10T09:05:12.631Z,10.35
2023-05-10T09:08:22.886Z,8.80
2023-05-10T09:17:56.243Z,7.10
2023-05-10T09:20:46.392Z,7.45
2023-05-10T09:23:26.415Z,7.85
2023-05-10T09:26:37.123Z,6.90
2023-05-10T09:33:39.276Z,7.13
2023-05-10T09:36:22.861Z,6.20
2023-05-10T09:39:13.097Z,7.55
2023-05-10T09:42:16.813Z,6.60
2023-05-10T09:51:23.734Z,5.90
2023-05-10T09:54:32.835Z,6.70
2023-05-10T10:00:51.797Z,7.18
2023-05-10T10:04:03.812Z,6.47
2023-05-10T10:10:24.746Z,8.35
2023-05-10T10:13:22.818Z,8.35
2023-05-10T10:19:10.878Z,7.77
2023-05-10T10:22:22.977Z,8.13
2023-05-10T10:25:06.791Z,6.10
2023-05-10T10:28:20.872Z,9.02
2023-05-10T10:31:53.842Z,8.20
2023-05-10T10:46:45.287Z,8.70
2023-05-10T10:52:55.861Z,10.20
2023-05-10T10:59:18.556Z,8.50
2023-05-10T11:01:55.097Z,8.20
2023-05-10T11:04:50.064Z,8.23
2023-05-10T11:08:10.502Z,10.60
2023-05-10T11:11:09.553Z,6.57
2023-05-10T11:14:11.469Z,10.73
2023-05-10T11:16:51.981Z,7.38
2023-05-10T11:26:39.985Z,6.60
2023-05-10T11:29:39.565Z,7.57
2023-05-10T11:38:09.429Z,13.00
2023-05-10T11:41:00.854Z,8.05
2023-05-10T11:46:38.479Z,8.50
2023-05-10T11:49:13.898Z,5.60
2023-05-10T11:52:12.670Z,5.45
2023-05-10T11:58:42.829Z,6.75
2023-05-10T12:04:25.020Z,9.60
2023-05-10T12:10:35.680Z,12.50
2023-05-10T12:16:50.976Z,10.75
2023-05-10T12:23:00.821Z,9.95
2023-05-10T12:26:04.217Z,11.48
2023-05-10T12:28:46.425Z,14.98
2023-05-10T12:35:20.824Z,11.40
2023-05-10T12:37:56.508Z,12.35
2023-05-10T12:40:56.918Z,12.15
2023-05-10T12:43:44.276Z,12.18
2023-05-10T12:46:34.161Z,10.45
2023-05-10T12:49:15.937Z,11.20
2023-05-10T12:51:55.474Z,9.02
2023-05-10T12:54:49.148Z,10.02
2023-05-10T13:00:29.055Z,9.95
2023-05-10T13:06:26.929Z,11.57
2023-05-10T13:09:19.064Z,12.35
2023-05-10T13:13:43.875Z,12.43
2023-05-10T13:15:44.434Z,9.75
2023-05-10T13:22:11.912Z,9.27
2023-05-10T13:25:23.184Z,9.32
2023-05-10T13:27:57.598Z,8.98
2023-05-10T13:30:28.201Z,10.43
2023-05-10T13:36:24.670Z,8.70
2023-05-10T13:39:08.613Z,10.20
2023-05-10T13:42:12.512Z,12.00
2023-05-10T13:45:04.612Z,11.13
2023-05-10T13:47:59.105Z,8.63
2023-05-10T13:50:53.503Z,8.27
2023-05-10T13:53:47.775Z,8.75
2023-05-10T13:56:37.652Z,7.97
2023-05-10T13:59:45.662Z,10.90
2023-05-10T14:02:27.142Z,10.97
2023-05-10T14:05:33.743Z,8.60
2023-05-10T14:08:32.927Z,12.10
2023-05-10T14:14:57.449Z,8.88
2023-05-10T14:18:34.577Z,8.10
2023-05-10T14:24:31.110Z,9.02
2023-05-10T14:27:22.766Z,9.07
2023-05-10T14:36:19.457Z,8.75
2023-05-10T14:38:59.424Z,8.70
2023-05-10T14:42:02.174Z,6.72
2023-05-10T14:44:52.668Z,8.10
2023-05-10T14:47:51.701Z,10.03
2023-05-10T14:54:17.924Z,7.53
2023-05-10T15:00:01.557Z,9.40
2023-05-10T15:02:58.230Z,8.47
2023-05-10T15:06:00.576Z,9.38
2023-05-10T15:08:40.261Z,10.23
2023-05-10T15:11:23.144Z,9.13
2023-05-10T15:14:02.105Z,8.65
2023-05-10T15:16:43.839Z,7.33
2023-05-10T15:22:53.918Z,7.15
2023-05-10T15:28:41.938Z,8.10
2023-05-10T15:31:44.574Z,8.20
2023-05-10T15:34:42.517Z,8.52
2023-05-10T15:37:19.561Z,6.78
2023-05-10T15:43:15.637Z,10.13
2023-05-10T15:46:04.162Z,9.27
2023-05-10T15:49:00.446Z,12.05
2023-05-10T15:51:41.722Z,8.77
2023-05-10T15:57:04.348Z,7.45
2023-05-10T16:02:26.575Z,9.75
2023-05-10T16:05:37.945Z,10.90
2023-05-10T16:14:07.117Z,10.43
2023-05-10T16:17:00.441Z,7.68
2023-05-10T16:19:57.437Z,7.47
2023-05-10T16:22:41.858Z,9.13
2023-05-10T16:25:19.687Z,6.80
2023-05-10T16:27:57.087Z,8.40
2023-05-10T16:30:38.377Z,9.25
2023-05-10T16:33:21.056Z,7.00
2023-05-10T16:36:19.117Z,8.50
2023-05-10T16:41:51.719Z,7.40
2023-05-10T16:44:31.080Z,7.00
2023-05-10T16:47:01.516Z,7.03
2023-05-10T16:49:29.269Z,8.88
2023-05-10T16:52:04.473Z,6.80
2023-05-10T16:54:51.999Z,10.97
2023-05-10T16:57:42.353Z,8.77
2023-05-10T17:03:33.974Z,10.30
2023-05-10T17:06:20.388Z,7.82
2023-05-10T17:12:06.713Z,10.18
2023-05-10T17:15:09.584Z,11.13
2023-05-10T17:18:04.229Z,10.98
2023-05-10T17:21:00.457Z,8.68
2023-05-10T17:24:05.961Z,9.87
2023-05-10T17:30:12.852Z,9.10
2023-05-10T17:32:52.456Z,9.93
2023-05-10T17:35:27.616Z,8.38
2023-05-10T17:38:18.771Z,11.57
2023-05-10T17:41:10.339Z,8.43
2023-05-10T17:43:41.148Z,9.07
2023-05-10T17:46:18.001Z,8.13
2023-05-10T17:48:48.696Z,8.50
2023-05-10T17:51:16.142Z,8.00
2023-05-10T17:53:43.766Z,8.68
2023-05-10T17:56:12.399Z,8.70
2023-05-10T17:58:40.021Z,7.95
2023-05-10T18:01:11.531Z,8.65
2023-05-10T18:03:39.029Z,7.67
2023-05-10T18:06:09.570Z,10.70
2023-05-10T18:08:37.921Z,10.13
2023-05-10T18:11:05.480Z,9.45
2023-05-10T18:13:32.828Z,8.48
2023-05-10T18:16:00.334Z,7.27
2023-05-10T18:18:27.701Z,9.13
2023-05-10T18:20:58.069Z,8.77
2023-05-10T18:23:25.762Z,13.18
2023-05-10T18:25:53.209Z,9.85
2023-05-10T18:28:20.661Z,14.07
2023-05-10T18:30:48.214Z,10.18
2023-05-10T18:33:15.686Z,12.48
2023-05-10T18:35:43.045Z,11.18
2023-05-10T18:38:10.406Z,9.93
2023-05-10T18:40:37.853Z,10.67
2023-05-10T18:43:05.266Z,11.77
2023-05-10T18:45:35.759Z,9.25
2023-05-10T18:48:03.308Z,9.32
2023-05-10T18:50:32.780Z,13.55
2023-05-10T18:53:00.131Z,9.00
2023-05-10T18:55:28.295Z,7.60
2023-05-10T18:57:56.873Z,8.32
2023-05-10T19:00:27.630Z,9.63
2023-05-10T19:02:55.070Z,10.27
2023-05-10T19:05:27.500Z,9.30
2023-05-10T19:07:54.771Z,10.00
2023-05-10T19:10:25.223Z,9.93
2023-05-10T19:12:52.567Z,9.57
2023-05-10T19:15:21.693Z,14.20
2023-05-10T19:17:50.734Z,10.83
2023-05-10T19:20:19.230Z,9.90
2023-05-10T19:23:02.006Z,9.35
2023-05-10T19:25:35.694Z,13.10
2023-05-10T19:28:03.161Z,8.30
2023-05-10T19:30:32.129Z,9.57
2023-05-10T19:32:59.549Z,11.10
2023-05-10T19:35:26.964Z,8.95
2023-05-10T19:37:54.448Z,9.07
2023-05-10T19:40:21.993Z,9.15
2023-05-10T19:42:53.462Z,9.10
2023-05-10T19:45:20.847Z,9.55
2023-05-10T19:47:48.498Z,13.15
2023-05-10T19:50:18.888Z,9.05
2023-05-10T19:52:46.424Z,11.07
2023-05-10T19:55:16.201Z,10.07
2023-05-10T19:57:46.983Z,12.75
2023-05-10T20:00:15.675Z,9.82
2023-05-10T20:02:43.028Z,11.88
2023-05-10T20:05:14.955Z,11.35
2023-05-10T20:07:42.593Z,12.27
2023-05-10T20:10:11.035Z,15.43
2023-05-10T20:12:38.621Z,11.82
2023-05-10T20:15:07.507Z,10.88
2023-05-10T20:17:37.974Z,9.23
2023-05-10T20:20:09.048Z,11.83
2023-05-10T20:22:37.304Z,11.25
2023-05-10T20:25:05.445Z,10.23
2023-05-10T20:27:33.351Z,12.10
2023-05-10T20:30:04.121Z,11.20
2023-05-10T20:32:32.792Z,12.80
2023-05-10T20:35:06.995Z,12.80
2023-05-10T20:37:47.705Z,10.20
2023-05-10T20:40:21.780Z,12.85
2023-05-10T20:42:52.937Z,12.18
2023-05-10T20:45:25.250Z,11.07
2023-05-10T20:47:54.500Z,12.18
2023-05-10T20:50:24.118Z,13.30
2023-05-10T20:52:52.644Z,17.52
2023-05-10T20:55:20.997Z,15.30
2023-05-10T20:57:51.857Z,19.90
2023-05-10T21:00:19.608Z,17.30
2023-05-10T21:02:48.643Z,15.48
2023-05-10T21:05:23.377Z,13.65
2023-05-10T21:07:54.714Z,14.00
2023-05-10T21:10:24.641Z,17.33
2023-05-10T21:12:52.413Z,13.45
2023-05-10T21:15:19.972Z,13.30
2023-05-10T21:17:47.482Z,20.23
2023-05-10T21:20:15.187Z,15.50
2023-05-10T21:22:42.759Z,13.43
2023-05-10T21:25:11.521Z,13.65
2023-05-10T21:27:40.752Z,13.00
2023-05-10T21:30:14.887Z,9.65
2023-05-10T21:32:42.913Z,11.15
2023-05-10T21:35:13.612Z,10.07
2023-05-10T21:37:41.116Z,10.18
2023-05-10T21:40:08.739Z,11.18
2023-05-10T21:42:36.205Z,10.45
2023-05-10T21:45:03.534Z,15.60
2023-05-10T21:47:33.288Z,12.97
2023-05-10T21:50:00.849Z,13.15
2023-05-10T21:52:31.116Z,12.27
2023-05-10T21:55:01.172Z,12.02
2023-05-10T21:57:33.514Z,7.57
2023-05-10T22:00:09.124Z,13.60
2023-05-10T22:02:36.849Z,12.95
2023-05-10T22:05:04.519Z,11.27
2023-05-10T22:07:32.566Z,9.38
2023-05-10T22:10:05.842Z,8.43
2023-05-10T22:12:34.630Z,10.40
2023-05-10T22:17:39.506Z,11.68
2023-05-10T22:20:08.432Z,9.50
2023-05-10T22:22:39.139Z,14.73
2023-05-10T22:25:07.886Z,13.00
2023-05-10T22:27:38.204Z,10.30
2023-05-10T22:30:05.917Z,13.45
2023-05-10T22:32:33.645Z,10.55
2023-05-10T22:35:01.145Z,12.25
2023-05-10T22:37:28.561Z,11.33
2023-05-10T22:39:56.986Z,14.15
2023-05-10T22:42:24.541Z,17.17
2023-05-10T22:44:55.365Z,14.35
2023-05-10T22:47:26.347Z,16.23
2023-05-10T22:49:55.881Z,16.67
2023-05-10T22:52:24.722Z,21.98
2023-05-10T22:54:52.233Z,15.43
2023-05-10T22:57:19.789Z,14.25
2023-05-10T22:59:48.555Z,17.55
2023-05-10T23:02:16.203Z,16.63
2023-05-10T23:04:44.455Z,14.82
2023-05-10T23:07:19.833Z,14.93
2023-05-10T23:09:49.728Z,15.15
2023-05-10T23:12:24.277Z,12.10
2023-05-10T23:15:01.970Z,11.17
2023-05-10T23:17:34.646Z,13.48
2023-05-10T23:20:02.496Z,11.55
2023-05-10T23:22:33.515Z,11.50
2023-05-10T23:25:03.840Z,10.02
2023-05-10T23:27:31.220Z,9.90
2023-05-10T23:29:58.989Z,9.95
2023-05-10T23:32:27.580Z,14.15
2023-05-10T23:34:55.138Z,9.45
2023-05-10T23:37:22.567Z,8.70
2023-05-10T23:39:49.857Z,9.13
2023-05-10T23:42:17.204Z,11.18
2023-05-10T23:44:44.867Z,12.50
2023-05-10T23:47:12.258Z,10.73
2023-05-10T23:49:43.848Z,8.07
2023-05-10T23:52:11.454Z,10.27
2023-05-10T23:54:46.012Z,12.20
2023-05-10T23:57:15.611Z,11.40
2023-05-10T23:59:42.939Z,14.50
